sensor_id;sensor_type;location;lat;lon;timestamp;P1;durP1;ratioP1;P2;durP2;ratioP2
1400;SDS011;46518;48.842;8.926;2024-02-28T00:02:27;26.42;;;16.65;;
1400;SDS011;46518;48.842;8.926;2024-02-28T00:04:57;23.52;;;15.07;;
1400;SDS011;46518;48.842;8.926;2024-02-28T00:07:27;20.42;;;14.77;;
1400;SDS011;46518;48.842;8.926;2024-02-28T00:09:55;20.70;;;15.80;;
1400;SDS011;46518;48.842;8.926;2024-02-28T00:12:24;21.00;;;16.85;;
1400;SDS011;46518;48.842;8.926;2024-02-28T00:14:52;20.35;;;15.25;;
1400;SDS011;46518;48.842;8.926;2024-02-28T00:17:20;23.60;;;16.20;;
1400;SDS011;46518;48.842;8.926;2024-02-28T00:19:49;18.63;;;15.20;;
1400;SDS011;46518;48.842;8.926;2024-02-28T00:22:17;25.63;;;17.25;;
1400;SDS011;46518;48.842;8.926;2024-02-28T00:24:47;19.17;;;15.25;;
1400;SDS011;46518;48.842;8.926;2024-02-28T00:27:15;19.30;;;15.10;;
1400;SDS011;46518;48.842;8.926;2024-02-28T00:29:43;20.27;;;15.55;;
1400;SDS011;46518;48.842;8.926;2024-02-28T00:32:12;22.55;;;16.15;;
1400;SDS011;46518;48.842;8.926;2024-02-28T00:34:40;21.60;;;16.27;;
1400;SDS011;46518;48.842;8.926;2024-02-28T00:37:08;23.45;;;14.63;;
1400;SDS011;46518;48.842;8.926;2024-02-28T00:39:37;20.70;;;15.40;;
1400;SDS011;46518;48.842;8.926;2024-02-28T00:42:06;22.20;;;16.02;;
1400;SDS011;46518;48.842;8.926;2024-02-28T00:49:45;21.13;;;15.55;;
1400;SDS011;46518;48.842;8.926;2024-02-28T00:52:13;23.85;;;15.38;;
1400;SDS011;46518;48.842;8.926;2024-02-28T00:54:41;20.55;;;14.85;;
1400;SDS011;46518;48.842;8.926;2024-02-28T00:57:10;26.90;;;16.38;;
1400;SDS011;46518;48.842;8.926;2024-02-28T00:59:38;26.75;;;16.90;;
1400;SDS011;46518;48.842;8.926;2024-02-28T01:02:07;22.83;;;15.82;;
1400;SDS011;46518;48.842;8.926;2024-02-28T01:04:35;23.90;;;17.92;;
1400;SDS011;46518;48.842;8.926;2024-02-28T01:07:03;20.25;;;16.25;;
1400;SDS011;46518;48.842;8.926;2024-02-28T01:09:31;25.35;;;16.50;;
1400;SDS011;46518;48.842;8.926;2024-02-28T01:12:00;25.40;;;15.32;;
1400;SDS011;46518;48.842;8.926;2024-02-28T01:14:30;21.85;;;17.70;;
1400;SDS011;46518;48.842;8.926;2024-02-28T01:16:58;23.73;;;16.67;;
1400;SDS011;46518;48.842;8.926;2024-02-28T01:19:26;25.67;;;17.63;;
1400;SDS011;46518;48.842;8.926;2024-02-28T01:21:54;25.23;;;16.52;;
1400;SDS011;46518;48.842;8.926;2024-02-28T01:24:23;22.35;;;16.20;;
1400;SDS011;46518;48.842;8.926;2024-02-28T01:26:51;26.17;;;17.33;;
1400;SDS011;46518;48.842;8.926;2024-02-28T01:29:19;23.40;;;15.95;;
1400;SDS011;46518;48.842;8.926;2024-02-28T01:31:48;28.67;;;17.38;;
1400;SDS011;46518;48.842;8.926;2024-02-28T01:34:17;21.73;;;16.60;;
1400;SDS011;46518;48.842;8.926;2024-02-28T01:36:45;28.00;;;17.40;;
1400;SDS011;46518;48.842;8.926;2024-02-28T01:39:13;27.15;;;16.13;;
1400;SDS011;46518;48.842;8.926;2024-02-28T01:41:49;23.80;;;15.73;;
1400;SDS011;46518;48.842;8.926;2024-02-28T01:44:18;28.65;;;18.58;;
1400;SDS011;46518;48.842;8.926;2024-02-28T01:46:47;25.30;;;17.52;;
1400;SDS011;46518;48.842;8.926;2024-02-28T01:49:16;29.13;;;18.48;;
1400;SDS011;46518;48.842;8.926;2024-02-28T01:51:45;26.70;;;17.23;;
1400;SDS011;46518;48.842;8.926;2024-02-28T01:54:15;20.90;;;16.27;;
1400;SDS011;46518;48.842;8.926;2024-02-28T01:56:44;25.23;;;17.45;;
1400;SDS011;46518;48.842;8.926;2024-02-28T01:59:13;26.85;;;17.02;;
1400;SDS011;46518;48.842;8.926;2024-02-28T02:01:42;25.83;;;15.52;;
1400;SDS011;46518;48.842;8.926;2024-02-28T02:04:12;26.33;;;17.27;;
1400;SDS011;46518;48.842;8.926;2024-02-28T02:06:41;24.63;;;15.38;;
1400;SDS011;46518;48.842;8.926;2024-02-28T02:09:11;26.58;;;16.58;;
1400;SDS011;46518;48.842;8.926;2024-02-28T02:11:40;24.52;;;17.90;;
1400;SDS011;46518;48.842;8.926;2024-02-28T02:14:08;26.30;;;17.48;;
1400;SDS011;46518;48.842;8.926;2024-02-28T02:16:36;27.50;;;18.60;;
1400;SDS011;46518;48.842;8.926;2024-02-28T02:19:04;25.92;;;17.77;;
1400;SDS011;46518;48.842;8.926;2024-02-28T02:21:37;22.55;;;16.15;;
1400;SDS011;46518;48.842;8.926;2024-02-28T02:24:12;22.83;;;17.42;;
1400;SDS011;46518;48.842;8.926;2024-02-28T02:26:40;22.20;;;16.60;;
1400;SDS011;46518;48.842;8.926;2024-02-28T02:29:11;22.17;;;16.42;;
1400;SDS011;46518;48.842;8.926;2024-02-28T02:31:39;25.00;;;17.13;;
1400;SDS011;46518;48.842;8.926;2024-02-28T02:34:07;23.27;;;16.15;;
1400;SDS011;46518;48.842;8.926;2024-02-28T02:36:36;24.25;;;16.63;;
1400;SDS011;46518;48.842;8.926;2024-02-28T02:39:04;24.58;;;17.98;;
1400;SDS011;46518;48.842;8.926;2024-02-28T02:41:35;20.40;;;15.95;;
1400;SDS011;46518;48.842;8.926;2024-02-28T02:44:04;23.45;;;16.40;;
1400;SDS011;46518;48.842;8.926;2024-02-28T02:46:32;22.13;;;16.77;;
1400;SDS011;46518;48.842;8.926;2024-02-28T02:49:00;22.30;;;15.68;;
1400;SDS011;46518;48.842;8.926;2024-02-28T02:51:28;26.70;;;16.80;;
1400;SDS011;46518;48.842;8.926;2024-02-28T02:53:57;21.88;;;16.98;;
1400;SDS011;46518;48.842;8.926;2024-02-28T02:56:25;26.92;;;17.05;;
1400;SDS011;46518;48.842;8.926;2024-02-28T02:58:54;26.75;;;18.42;;
1400;SDS011;46518;48.842;8.926;2024-02-28T03:01:22;23.10;;;16.55;;
1400;SDS011;46518;48.842;8.926;2024-02-28T03:03:50;25.17;;;19.73;;
1400;SDS011;46518;48.842;8.926;2024-02-28T03:06:19;28.08;;;18.00;;
1400;SDS011;46518;48.842;8.926;2024-02-28T03:08:47;33.15;;;19.67;;
1400;SDS011;46518;48.842;8.926;2024-02-28T03:11:15;31.92;;;20.30;;
1400;SDS011;46518;48.842;8.926;2024-02-28T03:13:43;27.30;;;19.55;;
1400;SDS011;46518;48.842;8.926;2024-02-28T03:16:13;27.15;;;18.70;;
1400;SDS011;46518;48.842;8.926;2024-02-28T03:18:41;36.55;;;20.63;;
1400;SDS011;46518;48.842;8.926;2024-02-28T03:21:09;29.88;;;19.52;;
1400;SDS011;46518;48.842;8.926;2024-02-28T03:23:37;31.80;;;21.13;;
1400;SDS011;46518;48.842;8.926;2024-02-28T03:26:05;28.75;;;19.63;;
1400;SDS011;46518;48.842;8.926;2024-02-28T03:28:34;34.72;;;20.70;;
1400;SDS011;46518;48.842;8.926;2024-02-28T03:31:03;32.40;;;20.35;;
1400;SDS011;46518;48.842;8.926;2024-02-28T03:33:32;36.97;;;23.48;;
1400;SDS011;46518;48.842;8.926;2024-02-28T03:36:02;30.98;;;22.25;;
1400;SDS011;46518;48.842;8.926;2024-02-28T03:38:30;32.45;;;20.88;;
1400;SDS011;46518;48.842;8.926;2024-02-28T03:40:58;29.10;;;20.92;;
1400;SDS011;46518;48.842;8.926;2024-02-28T03:43:26;33.80;;;22.90;;
1400;SDS011;46518;48.842;8.926;2024-02-28T03:45:55;36.10;;;21.88;;
1400;SDS011;46518;48.842;8.926;2024-02-28T03:48:23;38.35;;;23.35;;
1400;SDS011;46518;48.842;8.926;2024-02-28T03:50:52;37.92;;;24.00;;
1400;SDS011;46518;48.842;8.926;2024-02-28T03:53:21;38.55;;;23.90;;
1400;SDS011;46518;48.842;8.926;2024-02-28T03:55:50;36.97;;;23.63;;
1400;SDS011;46518;48.842;8.926;2024-02-28T03:58:18;32.40;;;24.48;;
1400;SDS011;46518;48.842;8.926;2024-02-28T04:00:46;34.13;;;23.27;;
1400;SDS011;46518;48.842;8.926;2024-02-28T04:03:15;31.65;;;22.05;;
1400;SDS011;46518;48.842;8.926;2024-02-28T04:05:43;34.33;;;22.42;;
1400;SDS011;46518;48.842;8.926;2024-02-28T04:08:12;38.15;;;23.20;;
1400;SDS011;46518;48.842;8.926;2024-02-28T04:10:40;37.42;;;23.73;;
1400;SDS011;46518;48.842;8.926;2024-02-28T04:13:09;31.17;;;22.52;;
1400;SDS011;46518;48.842;8.926;2024-02-28T04:15:37;35.72;;;23.40;;
1400;SDS011;46518;48.842;8.926;2024-02-28T04:18:05;31.10;;;21.67;;
1400;SDS011;46518;48.842;8.926;2024-02-28T04:20:33;34.50;;;22.83;;
1400;SDS011;46518;48.842;8.926;2024-02-28T04:23:02;34.92;;;22.65;;
1400;SDS011;46518;48.842;8.926;2024-02-28T04:25:31;32.50;;;21.30;;
1400;SDS011;46518;48.842;8.926;2024-02-28T04:28:00;32.97;;;23.10;;
1400;SDS011;46518;48.842;8.926;2024-02-28T04:30:29;29.90;;;21.20;;
1400;SDS011;46518;48.842;8.926;2024-02-28T04:32:57;32.97;;;23.25;;
1400;SDS011;46518;48.842;8.926;2024-02-28T04:35:25;35.30;;;21.10;;
1400;SDS011;46518;48.842;8.926;2024-02-28T04:37:53;30.13;;;21.52;;
1400;SDS011;46518;48.842;8.926;2024-02-28T04:40:22;31.80;;;21.42;;
1400;SDS011;46518;48.842;8.926;2024-02-28T04:42:51;32.20;;;22.00;;
1400;SDS011;46518;48.842;8.926;2024-02-28T04:45:19;31.70;;;22.33;;
1400;SDS011;46518;48.842;8.926;2024-02-28T04:47:47;31.38;;;22.08;;
1400;SDS011;46518;48.842;8.926;2024-02-28T04:50:18;29.77;;;22.13;;
1400;SDS011;46518;48.842;8.926;2024-02-28T04:52:46;27.77;;;20.70;;
1400;SDS011;46518;48.842;8.926;2024-02-28T04:55:14;29.95;;;20.83;;
1400;SDS011;46518;48.842;8.926;2024-02-28T04:57:43;30.52;;;20.95;;
1400;SDS011;46518;48.842;8.926;2024-02-28T05:00:13;24.30;;;19.00;;
1400;SDS011;46518;48.842;8.926;2024-02-28T05:02:42;33.70;;;21.02;;
1400;SDS011;46518;48.842;8.926;2024-02-28T05:05:10;32.67;;;21.20;;
1400;SDS011;46518;48.842;8.926;2024-02-28T05:07:38;25.95;;;18.55;;
1400;SDS011;46518;48.842;8.926;2024-02-28T05:10:07;31.58;;;21.98;;
1400;SDS011;46518;48.842;8.926;2024-02-28T05:12:35;32.60;;;21.80;;
1400;SDS011;46518;48.842;8.926;2024-02-28T05:15:04;28.85;;;20.95;;
1400;SDS011;46518;48.842;8.926;2024-02-28T05:17:34;30.05;;;20.45;;
1400;SDS011;46518;48.842;8.926;2024-02-28T05:20:03;37.50;;;23.55;;
1400;SDS011;46518;48.842;8.926;2024-02-28T05:22:31;33.90;;;22.52;;
1400;SDS011;46518;48.842;8.926;2024-02-28T05:24:59;35.13;;;23.20;;
1400;SDS011;46518;48.842;8.926;2024-02-28T05:27:28;34.15;;;22.85;;
1400;SDS011;46518;48.842;8.926;2024-02-28T05:29:56;38.15;;;24.38;;
1400;SDS011;46518;48.842;8.926;2024-02-28T05:32:26;38.28;;;25.20;;
1400;SDS011;46518;48.842;8.926;2024-02-28T05:34:56;38.83;;;23.38;;
1400;SDS011;46518;48.842;8.926;2024-02-28T05:37:24;38.00;;;23.20;;
1400;SDS011;46518;48.842;8.926;2024-02-28T05:39:52;35.30;;;22.15;;
1400;SDS011;46518;48.842;8.926;2024-02-28T05:42:21;37.20;;;24.63;;
1400;SDS011;46518;48.842;8.926;2024-02-28T05:44:49;33.80;;;21.55;;
1400;SDS011;46518;48.842;8.926;2024-02-28T05:47:18;37.50;;;23.20;;
1400;SDS011;46518;48.842;8.926;2024-02-28T05:49:51;28.55;;;20.52;;
1400;SDS011;46518;48.842;8.926;2024-02-28T05:52:20;35.28;;;23.73;;
1400;SDS011;46518;48.842;8.926;2024-02-28T05:54:48;36.40;;;22.33;;
1400;SDS011;46518;48.842;8.926;2024-02-28T05:57:16;36.50;;;21.73;;
1400;SDS011;46518;48.842;8.926;2024-02-28T05:59:45;39.80;;;25.95;;
1400;SDS011;46518;48.842;8.926;2024-02-28T06:02:14;32.60;;;22.45;;
1400;SDS011;46518;48.842;8.926;2024-02-28T06:04:42;36.47;;;22.70;;
1400;SDS011;46518;48.842;8.926;2024-02-28T06:07:10;31.60;;;21.42;;
1400;SDS011;46518;48.842;8.926;2024-02-28T06:09:40;32.20;;;22.27;;
1400;SDS011;46518;48.842;8.926;2024-02-28T06:12:08;28.02;;;20.45;;
1400;SDS011;46518;48.842;8.926;2024-02-28T06:14:36;31.58;;;21.83;;
1400;SDS011;46518;48.842;8.926;2024-02-28T06:17:05;32.63;;;21.42;;
1400;SDS011;46518;48.842;8.926;2024-02-28T06:19:36;36.13;;;22.50;;
1400;SDS011;46518;48.842;8.926;2024-02-28T06:22:04;33.78;;;21.63;;
1400;SDS011;46518;48.842;8.926;2024-02-28T06:24:34;28.75;;;20.55;;
1400;SDS011;46518;48.842;8.926;2024-02-28T06:27:04;31.70;;;21.45;;
1400;SDS011;46518;48.842;8.926;2024-02-28T06:29:34;33.38;;;20.63;;
1400;SDS011;46518;48.842;8.926;2024-02-28T06:32:03;34.88;;;24.27;;
1400;SDS011;46518;48.842;8.926;2024-02-28T06:34:32;37.97;;;23.20;;
1400;SDS011;46518;48.842;8.926;2024-02-28T06:37:00;31.73;;;21.10;;
1400;SDS011;46518;48.842;8.926;2024-02-28T06:39:28;32.30;;;21.10;;
1400;SDS011;46518;48.842;8.926;2024-02-28T06:41:57;31.63;;;24.27;;
1400;SDS011;46518;48.842;8.926;2024-02-28T06:44:26;36.63;;;23.92;;
1400;SDS011;46518;48.842;8.926;2024-02-28T06:46:55;28.15;;;20.52;;
1400;SDS011;46518;48.842;8.926;2024-02-28T06:49:23;33.25;;;20.70;;
1400;SDS011;46518;48.842;8.926;2024-02-28T06:51:51;36.33;;;22.92;;
1400;SDS011;46518;48.842;8.926;2024-02-28T06:54:20;30.75;;;21.92;;
1400;SDS011;46518;48.842;8.926;2024-02-28T06:56:48;36.55;;;23.35;;
1400;SDS011;46518;48.842;8.926;2024-02-28T06:59:16;32.25;;;22.77;;
1400;SDS011;46518;48.842;8.926;2024-02-28T07:04:34;35.90;;;24.10;;
1400;SDS011;46518;48.842;8.926;2024-02-28T07:07:03;30.65;;;20.95;;
1400;SDS011;46518;48.842;8.926;2024-02-28T07:09:31;32.47;;;22.13;;
1400;SDS011;46518;48.842;8.926;2024-02-28T07:12:00;33.63;;;22.58;;
1400;SDS011;46518;48.842;8.926;2024-02-28T07:14:28;34.15;;;24.30;;
1400;SDS011;46518;48.842;8.926;2024-02-28T07:16:56;28.35;;;19.70;;
1400;SDS011;46518;48.842;8.926;2024-02-28T07:19:26;33.22;;;23.40;;
1400;SDS011;46518;48.842;8.926;2024-02-28T07:27:05;35.00;;;22.30;;
1400;SDS011;46518;48.842;8.926;2024-02-28T07:29:33;35.55;;;21.30;;
1400;SDS011;46518;48.842;8.926;2024-02-28T07:32:01;37.70;;;22.38;;
1400;SDS011;46518;48.842;8.926;2024-02-28T07:34:31;32.83;;;23.35;;
1400;SDS011;46518;48.842;8.926;2024-02-28T07:37:00;34.63;;;23.75;;
1400;SDS011;46518;48.842;8.926;2024-02-28T07:39:29;33.53;;;21.55;;
1400;SDS011;46518;48.842;8.926;2024-02-28T07:41:57;33.90;;;22.23;;
1400;SDS011;46518;48.842;8.926;2024-02-28T07:44:25;27.38;;;19.23;;
1400;SDS011;46518;48.842;8.926;2024-02-28T07:46:57;27.63;;;19.50;;
1400;SDS011;46518;48.842;8.926;2024-02-28T07:49:25;24.52;;;17.50;;
1400;SDS011;46518;48.842;8.926;2024-02-28T07:51:56;30.80;;;20.27;;
1400;SDS011;46518;48.842;8.926;2024-02-28T07:54:24;24.05;;;17.67;;
1400;SDS011;46518;48.842;8.926;2024-02-28T07:56:52;24.77;;;17.88;;
1400;SDS011;46518;48.842;8.926;2024-02-28T07:59:20;27.08;;;18.70;;
1400;SDS011;46518;48.842;8.926;2024-02-28T08:01:49;25.52;;;18.05;;
1400;SDS011;46518;48.842;8.926;2024-02-28T08:04:17;25.77;;;17.80;;
1400;SDS011;46518;48.842;8.926;2024-02-28T08:06:45;25.83;;;17.48;;
1400;SDS011;46518;48.842;8.926;2024-02-28T08:09:14;26.25;;;19.30;;
1400;SDS011;46518;48.842;8.926;2024-02-28T08:11:43;27.65;;;19.05;;
1400;SDS011;46518;48.842;8.926;2024-02-28T08:14:10;24.73;;;18.42;;
1400;SDS011;46518;48.842;8.926;2024-02-28T08:16:38;25.17;;;18.20;;
1400;SDS011;46518;48.842;8.926;2024-02-28T08:19:06;30.58;;;19.38;;
1400;SDS011;46518;48.842;8.926;2024-02-28T08:21:35;24.48;;;17.48;;
1400;SDS011;46518;48.842;8.926;2024-02-28T08:24:03;24.90;;;18.02;;
1400;SDS011;46518;48.842;8.926;2024-02-28T08:26:32;29.65;;;20.20;;
1400;SDS011;46518;48.842;8.926;2024-02-28T08:29:00;27.63;;;18.98;;
1400;SDS011;46518;48.842;8.926;2024-02-28T08:31:29;27.70;;;18.40;;
1400;SDS011;46518;48.842;8.926;2024-02-28T08:33:57;26.13;;;17.30;;
1400;SDS011;46518;48.842;8.926;2024-02-28T08:36:25;28.80;;;19.00;;
1400;SDS011;46518;48.842;8.926;2024-02-28T08:38:53;29.30;;;20.08;;
1400;SDS011;46518;48.842;8.926;2024-02-28T08:41:21;25.23;;;18.55;;
1400;SDS011;46518;48.842;8.926;2024-02-28T08:43:51;28.83;;;18.92;;
1400;SDS011;46518;48.842;8.926;2024-02-28T08:46:19;32.25;;;21.02;;
1400;SDS011;46518;48.842;8.926;2024-02-28T08:48:47;25.15;;;18.15;;
1400;SDS011;46518;48.842;8.926;2024-02-28T08:51:15;24.88;;;17.17;;
1400;SDS011;46518;48.842;8.926;2024-02-28T08:53:43;99.20;;;60.35;;
1400;SDS011;46518;48.842;8.926;2024-02-28T08:56:11;44.35;;;30.67;;
1400;SDS011;46518;48.842;8.926;2024-02-28T08:58:39;29.80;;;20.33;;
1400;SDS011;46518;48.842;8.926;2024-02-28T09:01:09;30.83;;;26.25;;
1400;SDS011;46518;48.842;8.926;2024-02-28T09:03:41;67.20;;;57.85;;
1400;SDS011;46518;48.842;8.926;2024-02-28T09:06:09;34.75;;;25.65;;
1400;SDS011;46518;48.842;8.926;2024-02-28T09:08:38;28.05;;;19.67;;
1400;SDS011;46518;48.842;8.926;2024-02-28T09:11:06;30.58;;;19.85;;
1400;SDS011;46518;48.842;8.926;2024-02-28T09:13:34;28.65;;;19.65;;
1400;SDS011;46518;48.842;8.926;2024-02-28T09:16:06;25.88;;;18.83;;
1400;SDS011;46518;48.842;8.926;2024-02-28T09:18:35;31.33;;;19.65;;
1400;SDS011;46518;48.842;8.926;2024-02-28T09:21:03;26.65;;;18.92;;
1400;SDS011;46518;48.842;8.926;2024-02-28T09:23:31;29.40;;;19.30;;
1400;SDS011;46518;48.842;8.926;2024-02-28T09:26:02;27.33;;;19.17;;
1400;SDS011;46518;48.842;8.926;2024-02-28T09:28:31;25.80;;;17.05;;
1400;SDS011;46518;48.842;8.926;2024-02-28T09:30:59;29.25;;;19.40;;
1400;SDS011;46518;48.842;8.926;2024-02-28T09:33:31;23.98;;;17.40;;
1400;SDS011;46518;48.842;8.926;2024-02-28T09:36:02;30.75;;;19.48;;
1400;SDS011;46518;48.842;8.926;2024-02-28T09:38:31;28.08;;;20.40;;
1400;SDS011;46518;48.842;8.926;2024-02-28T09:41:01;28.42;;;19.67;;
1400;SDS011;46518;48.842;8.926;2024-02-28T09:43:30;32.22;;;19.80;;
1400;SDS011;46518;48.842;8.926;2024-02-28T09:45:59;32.10;;;22.52;;
1400;SDS011;46518;48.842;8.926;2024-02-28T09:48:31;34.35;;;21.50;;
1400;SDS011;46518;48.842;8.926;2024-02-28T09:51:00;28.70;;;19.40;;
1400;SDS011;46518;48.842;8.926;2024-02-28T09:53:29;25.67;;;18.20;;
1400;SDS011;46518;48.842;8.926;2024-02-28T09:55:58;21.70;;;16.35;;
1400;SDS011;46518;48.842;8.926;2024-02-28T09:58:26;28.63;;;21.15;;
1400;SDS011;46518;48.842;8.926;2024-02-28T10:00:55;24.73;;;18.65;;
1400;SDS011;46518;48.842;8.926;2024-02-28T10:03:27;25.33;;;18.50;;
1400;SDS011;46518;48.842;8.926;2024-02-28T10:05:57;26.27;;;18.02;;
1400;SDS011;46518;48.842;8.926;2024-02-28T10:08:32;29.63;;;19.88;;
1400;SDS011;46518;48.842;8.926;2024-02-28T10:11:01;24.98;;;17.83;;
1400;SDS011;46518;48.842;8.926;2024-02-28T10:13:29;24.90;;;16.48;;
1400;SDS011;46518;48.842;8.926;2024-02-28T10:15:58;18.65;;;14.45;;
1400;SDS011;46518;48.842;8.926;2024-02-28T10:18:26;21.00;;;14.20;;
1400;SDS011;46518;48.842;8.926;2024-02-28T10:20:54;19.45;;;13.20;;
1400;SDS011;46518;48.842;8.926;2024-02-28T10:23:23;22.05;;;15.68;;
1400;SDS011;46518;48.842;8.926;2024-02-28T10:25:52;23.02;;;16.20;;
1400;SDS011;46518;48.842;8.926;2024-02-28T10:28:23;20.80;;;16.17;;
1400;SDS011;46518;48.842;8.926;2024-02-28T10:30:52;19.88;;;13.88;;
1400;SDS011;46518;48.842;8.926;2024-02-28T10:33:21;20.83;;;14.65;;
1400;SDS011;46518;48.842;8.926;2024-02-28T10:35:50;17.10;;;12.75;;
1400;SDS011;46518;48.842;8.926;2024-02-28T10:38:19;14.70;;;12.75;;
1400;SDS011;46518;48.842;8.926;2024-02-28T10:40:48;16.90;;;12.35;;
1400;SDS011;46518;48.842;8.926;2024-02-28T10:43:19;23.95;;;16.00;;
1400;SDS011;46518;48.842;8.926;2024-02-28T10:45:48;22.33;;;15.90;;
1400;SDS011;46518;48.842;8.926;2024-02-28T10:48:37;21.05;;;14.85;;
1400;SDS011;46518;48.842;8.926;2024-02-28T10:51:05;23.10;;;14.30;;
1400;SDS011;46518;48.842;8.926;2024-02-28T10:53:36;23.30;;;15.13;;
1400;SDS011;46518;48.842;8.926;2024-02-28T10:56:05;19.90;;;14.50;;
1400;SDS011;46518;48.842;8.926;2024-02-28T10:58:40;19.83;;;15.02;;
1400;SDS011;46518;48.842;8.926;2024-02-28T11:01:14;21.30;;;16.10;;
1400;SDS011;46518;48.842;8.926;2024-02-28T11:03:42;18.27;;;14.20;;
1400;SDS011;46518;48.842;8.926;2024-02-28T11:06:16;18.83;;;14.50;;
1400;SDS011;46518;48.842;8.926;2024-02-28T11:08:46;18.80;;;12.88;;
1400;SDS011;46518;48.842;8.926;2024-02-28T11:11:15;19.30;;;14.30;;
1400;SDS011;46518;48.842;8.926;2024-02-28T11:13:52;20.05;;;13.13;;
1400;SDS011;46518;48.842;8.926;2024-02-28T11:16:27;20.38;;;14.75;;
1400;SDS011;46518;48.842;8.926;2024-02-28T11:18:56;19.02;;;15.05;;
1400;SDS011;46518;48.842;8.926;2024-02-28T11:21:24;20.63;;;14.35;;
1400;SDS011;46518;48.842;8.926;2024-02-28T11:23:56;21.70;;;15.27;;
1400;SDS011;46518;48.842;8.926;2024-02-28T11:26:26;17.27;;;12.98;;
1400;SDS011;46518;48.842;8.926;2024-02-28T11:28:56;17.02;;;12.68;;
1400;SDS011;46518;48.842;8.926;2024-02-28T11:31:24;18.92;;;13.95;;
1400;SDS011;46518;48.842;8.926;2024-02-28T11:33:52;17.77;;;13.93;;
1400;SDS011;46518;48.842;8.926;2024-02-28T11:36:21;20.80;;;14.57;;
1400;SDS011;46518;48.842;8.926;2024-02-28T11:38:49;19.02;;;12.70;;
1400;SDS011;46518;48.842;8.926;2024-02-28T11:41:24;24.17;;;14.40;;
1400;SDS011;46518;48.842;8.926;2024-02-28T11:43:55;23.35;;;14.85;;
1400;SDS011;46518;48.842;8.926;2024-02-28T11:46:24;17.52;;;12.88;;
1400;SDS011;46518;48.842;8.926;2024-02-28T11:48:52;18.00;;;14.38;;
1400;SDS011;46518;48.842;8.926;2024-02-28T11:51:20;21.45;;;13.95;;
1400;SDS011;46518;48.842;8.926;2024-02-28T11:53:48;17.77;;;13.98;;
1400;SDS011;46518;48.842;8.926;2024-02-28T11:56:17;22.08;;;14.80;;
1400;SDS011;46518;48.842;8.926;2024-02-28T11:58:50;20.02;;;14.25;;
1400;SDS011;46518;48.842;8.926;2024-02-28T12:01:20;15.88;;;11.75;;
1400;SDS011;46518;48.842;8.926;2024-02-28T12:04:03;18.77;;;12.90;;
1400;SDS011;46518;48.842;8.926;2024-02-28T12:06:32;22.77;;;15.82;;
1400;SDS011;46518;48.842;8.926;2024-02-28T12:09:03;19.10;;;13.88;;
1400;SDS011;46518;48.842;8.926;2024-02-28T12:11:32;23.75;;;15.50;;
1400;SDS011;46518;48.842;8.926;2024-02-28T12:14:02;19.65;;;13.68;;
1400;SDS011;46518;48.842;8.926;2024-02-28T12:16:32;20.08;;;15.25;;
1400;SDS011;46518;48.842;8.926;2024-02-28T12:19:02;20.75;;;14.65;;
1400;SDS011;46518;48.842;8.926;2024-02-28T12:21:30;19.17;;;12.98;;
1400;SDS011;46518;48.842;8.926;2024-02-28T12:23:58;21.23;;;15.05;;
1400;SDS011;46518;48.842;8.926;2024-02-28T12:26:27;19.80;;;14.93;;
1400;SDS011;46518;48.842;8.926;2024-02-28T12:28:55;18.17;;;15.07;;
1400;SDS011;46518;48.842;8.926;2024-02-28T12:31:23;21.27;;;14.30;;
1400;SDS011;46518;48.842;8.926;2024-02-28T12:33:53;21.92;;;15.38;;
1400;SDS011;46518;48.842;8.926;2024-02-28T12:36:21;18.67;;;14.10;;
1400;SDS011;46518;48.842;8.926;2024-02-28T12:38:49;20.17;;;13.13;;
1400;SDS011;46518;48.842;8.926;2024-02-28T12:41:18;21.88;;;14.80;;
1400;SDS011;46518;48.842;8.926;2024-02-28T12:43:46;21.85;;;14.82;;
1400;SDS011;46518;48.842;8.926;2024-02-28T12:46:14;16.70;;;12.52;;
1400;SDS011;46518;48.842;8.926;2024-02-28T12:48:42;19.77;;;14.10;;
1400;SDS011;46518;48.842;8.926;2024-02-28T12:51:13;21.08;;;14.07;;
1400;SDS011;46518;48.842;8.926;2024-02-28T12:54:03;21.50;;;15.43;;
1400;SDS011;46518;48.842;8.926;2024-02-28T12:56:31;19.80;;;14.10;;
1400;SDS011;46518;48.842;8.926;2024-02-28T12:58:59;21.80;;;15.95;;
1400;SDS011;46518;48.842;8.926;2024-02-28T13:01:27;23.02;;;17.13;;
1400;SDS011;46518;48.842;8.926;2024-02-28T13:03:56;23.80;;;16.77;;
1400;SDS011;46518;48.842;8.926;2024-02-28T13:06:26;22.50;;;15.27;;
1400;SDS011;46518;48.842;8.926;2024-02-28T13:08:55;26.30;;;17.40;;
1400;SDS011;46518;48.842;8.926;2024-02-28T13:11:24;21.55;;;15.63;;
1400;SDS011;46518;48.842;8.926;2024-02-28T13:13:52;24.52;;;16.55;;
1400;SDS011;46518;48.842;8.926;2024-02-28T13:16:21;20.40;;;14.65;;
1400;SDS011;46518;48.842;8.926;2024-02-28T13:18:49;22.85;;;16.58;;
1400;SDS011;46518;48.842;8.926;2024-02-28T13:21:17;23.05;;;15.30;;
1400;SDS011;46518;48.842;8.926;2024-02-28T13:23:47;23.27;;;15.02;;
1400;SDS011;46518;48.842;8.926;2024-02-28T13:26:17;20.10;;;15.52;;
1400;SDS011;46518;48.842;8.926;2024-02-28T13:28:45;23.45;;;16.15;;
1400;SDS011;46518;48.842;8.926;2024-02-28T13:31:18;27.02;;;17.85;;
1400;SDS011;46518;48.842;8.926;2024-02-28T13:33:47;21.02;;;13.73;;
1400;SDS011;46518;48.842;8.926;2024-02-28T13:36:16;20.60;;;14.55;;
1400;SDS011;46518;48.842;8.926;2024-02-28T13:38:44;20.55;;;14.27;;
1400;SDS011;46518;48.842;8.926;2024-02-28T13:41:14;22.10;;;16.52;;
1400;SDS011;46518;48.842;8.926;2024-02-28T13:43:43;21.92;;;15.43;;
1400;SDS011;46518;48.842;8.926;2024-02-28T13:46:11;20.80;;;14.18;;
1400;SDS011;46518;48.842;8.926;2024-02-28T13:48:41;22.35;;;16.98;;
1400;SDS011;46518;48.842;8.926;2024-02-28T13:51:09;18.20;;;13.80;;
1400;SDS011;46518;48.842;8.926;2024-02-28T13:53:38;20.00;;;14.43;;
1400;SDS011;46518;48.842;8.926;2024-02-28T13:56:06;20.85;;;14.95;;
1400;SDS011;46518;48.842;8.926;2024-02-28T13:58:36;20.73;;;13.30;;
1400;SDS011;46518;48.842;8.926;2024-02-28T14:01:18;17.67;;;14.27;;
1400;SDS011;46518;48.842;8.926;2024-02-28T14:03:46;21.65;;;14.38;;
1400;SDS011;46518;48.842;8.926;2024-02-28T14:06:14;18.45;;;13.15;;
1400;SDS011;46518;48.842;8.926;2024-02-28T14:08:43;22.92;;;14.55;;
1400;SDS011;46518;48.842;8.926;2024-02-28T14:11:11;20.27;;;14.10;;
1400;SDS011;46518;48.842;8.926;2024-02-28T14:13:40;19.77;;;13.90;;
1400;SDS011;46518;48.842;8.926;2024-02-28T14:16:09;16.42;;;12.80;;
1400;SDS011;46518;48.842;8.926;2024-02-28T14:18:37;18.05;;;12.65;;
1400;SDS011;46518;48.842;8.926;2024-02-28T14:21:05;18.10;;;12.90;;
1400;SDS011;46518;48.842;8.926;2024-02-28T14:23:34;15.85;;;11.85;;
1400;SDS011;46518;48.842;8.926;2024-02-28T14:26:02;18.00;;;14.07;;
1400;SDS011;46518;48.842;8.926;2024-02-28T14:28:33;23.13;;;14.38;;
1400;SDS011;46518;48.842;8.926;2024-02-28T14:31:03;22.35;;;14.75;;
1400;SDS011;46518;48.842;8.926;2024-02-28T14:33:31;21.17;;;13.70;;
1400;SDS011;46518;48.842;8.926;2024-02-28T14:35:59;16.25;;;12.32;;
1400;SDS011;46518;48.842;8.926;2024-02-28T14:38:30;18.23;;;12.20;;
1400;SDS011;46518;48.842;8.926;2024-02-28T14:40:58;20.38;;;12.30;;
1400;SDS011;46518;48.842;8.926;2024-02-28T14:43:26;13.70;;;10.30;;
1400;SDS011;46518;48.842;8.926;2024-02-28T14:45:56;16.98;;;14.00;;
1400;SDS011;46518;48.842;8.926;2024-02-28T14:48:26;19.52;;;12.73;;
1400;SDS011;46518;48.842;8.926;2024-02-28T14:50:54;19.15;;;12.27;;
1400;SDS011;46518;48.842;8.926;2024-02-28T14:53:23;18.60;;;12.45;;
1400;SDS011;46518;48.842;8.926;2024-02-28T14:55:51;17.73;;;11.80;;
1400;SDS011;46518;48.842;8.926;2024-02-28T14:58:19;19.35;;;12.68;;